createdAt,value
2019-05-16T00:04:44.145Z,2.90
2019-05-16T00:09:38.320Z,2.80
2019-05-16T00:14:32.282Z,2.70
2019-05-16T00:19:28.619Z,2.60
2019-05-16T00:24:22.193Z,2.90
2019-05-16T00:29:18.475Z,2.73
2019-05-16T00:34:15.521Z,2.53
2019-05-16T00:39:09.498Z,2.87
2019-05-16T00:44:03.576Z,2.80
2019-05-16T00:48:58.903Z,3.13
2019-05-16T00:53:53.080Z,2.93
2019-05-16T00:58:48.590Z,2.70
2019-05-16T01:03:42.517Z,2.77
2019-05-16T01:08:38.556Z,3.03
2019-05-16T01:13:32.428Z,2.90
2019-05-16T01:18:28.641Z,2.53
2019-05-16T01:23:22.414Z,2.50
2019-05-16T01:28:17.972Z,3.47
2019-05-16T01:33:12.377Z,2.77
2019-05-16T01:38:08.513Z,3.30
2019-05-16T01:43:02.315Z,2.80
2019-05-16T01:47:58.603Z,2.60
2019-05-16T01:52:52.171Z,2.70
2019-05-16T01:57:48.157Z,2.50
2019-05-16T02:02:42.131Z,2.80
2019-05-16T02:07:38.825Z,2.87
2019-05-16T02:12:33.003Z,3.00
2019-05-16T02:17:30.045Z,2.73
2019-05-16T02:22:24.317Z,2.67
2019-05-16T02:27:18.383Z,2.80
2019-05-16T02:32:14.248Z,3.00
2019-05-16T02:37:23.524Z,2.70
2019-05-16T02:42:06.421Z,2.77
2019-05-16T02:47:01.665Z,2.60
2019-05-16T02:51:55.910Z,2.80
2019-05-16T02:56:50.751Z,2.70
2019-05-16T03:01:45.129Z,2.77
2019-05-16T03:06:41.126Z,2.80
2019-05-16T03:11:35.248Z,2.60
2019-05-16T03:16:31.772Z,2.77
2019-05-16T03:21:27.328Z,3.10
2019-05-16T03:26:25.963Z,2.80
2019-05-16T03:31:24.542Z,2.60
2019-05-16T03:36:16.495Z,2.87
2019-05-16T03:41:11.501Z,2.80
2019-05-16T03:46:05.712Z,3.00
2019-05-16T03:51:00.846Z,2.90
2019-05-16T03:55:55.053Z,2.83
2019-05-16T04:00:52.679Z,3.00
2019-05-16T04:05:47.349Z,3.10
2019-05-16T04:10:42.006Z,2.77
2019-05-16T04:15:36.059Z,3.40
2019-05-16T04:20:31.935Z,3.13
2019-05-16T04:25:25.926Z,3.27
2019-05-16T04:30:21.981Z,3.10
2019-05-16T04:35:15.962Z,3.13
2019-05-16T04:40:12.152Z,3.17
2019-05-16T04:45:06.806Z,3.57
2019-05-16T04:50:01.757Z,3.30
2019-05-16T04:54:56.028Z,3.70
2019-05-16T04:59:50.918Z,3.00
2019-05-16T05:04:45.298Z,2.70
2019-05-16T05:09:40.934Z,3.20
2019-05-16T05:14:35.096Z,2.90
2019-05-16T05:19:30.655Z,3.10
2019-05-16T05:24:24.877Z,3.20
2019-05-16T05:29:20.046Z,3.60
2019-05-16T05:34:14.199Z,3.47
2019-05-16T05:39:12.971Z,3.63
2019-05-16T05:44:04.053Z,3.27
2019-05-16T05:48:59.875Z,3.80
2019-05-16T05:53:53.938Z,3.40
2019-05-16T05:58:47.899Z,3.57
2019-05-16T06:03:44.764Z,3.37
2019-05-16T06:08:40.893Z,3.50
2019-05-16T06:13:34.630Z,3.10
2019-05-16T06:18:30.479Z,3.03
2019-05-16T06:23:24.549Z,3.23
2019-05-16T06:28:20.682Z,3.13
2019-05-16T06:33:14.476Z,3.30
2019-05-16T06:38:09.997Z,3.23
2019-05-16T06:43:04.286Z,2.77
2019-05-16T06:47:58.270Z,2.60
2019-05-16T06:52:52.849Z,2.60
2019-05-16T06:57:46.805Z,2.30
2019-05-16T07:02:41.126Z,2.10
2019-05-16T07:07:35.491Z,2.20
2019-05-16T07:12:33.701Z,2.20
2019-05-16T07:17:27.229Z,2.27
2019-05-16T07:22:21.198Z,2.00
2019-05-16T07:27:15.157Z,2.00
2019-05-16T07:32:09.219Z,2.35
2019-05-16T07:37:03.311Z,2.30
2019-05-16T07:41:59.813Z,2.20
2019-05-16T07:46:53.105Z,2.40
2019-05-16T07:51:47.102Z,2.30
2019-05-16T07:56:43.107Z,2.30
2019-05-16T08:01:37.103Z,2.50
2019-05-16T08:06:34.071Z,2.17
2019-05-16T08:11:29.877Z,2.30
2019-05-16T08:16:22.971Z,2.50
2019-05-16T08:21:17.206Z,2.00
2019-05-16T08:26:12.925Z,2.50
2019-05-16T08:31:06.912Z,2.60
2019-05-16T08:36:08.114Z,2.17
2019-05-16T08:41:08.116Z,2.20
2019-05-16T08:45:55.258Z,2.45
2019-05-16T08:55:45.210Z,2.62
2019-05-16T09:00:41.924Z,2.30
2019-05-16T09:05:35.300Z,2.22
2019-05-16T09:10:30.561Z,2.30
2019-05-16T09:10:55.605Z,2.30
2019-05-16T09:15:27.268Z,2.52
2019-05-16T09:20:21.294Z,2.40
2019-05-16T09:25:18.190Z,2.27
2019-05-16T09:30:11.948Z,2.33
2019-05-16T09:35:07.808Z,2.70
2019-05-16T09:40:06.497Z,2.90
2019-05-16T09:45:00.768Z,3.15
2019-05-16T09:49:54.829Z,2.60
2019-05-16T09:54:48.804Z,2.87
2019-05-16T09:59:42.762Z,3.27
2019-05-16T10:04:36.936Z,2.70
2019-05-16T10:09:41.390Z,2.85
2019-05-16T10:14:27.020Z,2.65
2019-05-16T10:19:21.030Z,2.83
2019-05-16T10:24:15.034Z,2.30
2019-05-16T10:29:10.853Z,2.42
2019-05-16T10:34:07.689Z,2.10
2019-05-16T10:39:01.169Z,2.30
2019-05-16T10:43:56.828Z,2.40
2019-05-16T10:48:50.995Z,2.50
2019-05-16T10:54:10.467Z,2.20
2019-05-16T10:59:04.980Z,2.20
2019-05-16T11:03:39.524Z,2.60
2019-05-16T11:08:33.638Z,2.60
2019-05-16T11:13:28.184Z,3.02
2019-05-16T11:18:22.356Z,2.30
2019-05-16T11:23:22.349Z,2.50
2019-05-16T11:28:12.326Z,2.83
2019-05-16T11:33:07.561Z,2.67
2019-05-16T11:38:02.214Z,2.85
2019-05-16T11:43:06.528Z,2.90
2019-05-16T11:47:52.139Z,3.00
2019-05-16T11:52:48.677Z,2.92
2019-05-16T11:57:42.681Z,3.27
2019-05-16T12:02:37.718Z,3.42
2019-05-16T12:07:34.745Z,2.87
2019-05-16T12:12:28.536Z,2.67
2019-05-16T12:17:22.690Z,2.50
2019-05-16T12:22:18.349Z,3.05
2019-05-16T12:27:12.702Z,3.00
2019-05-16T12:32:07.788Z,3.05
2019-05-16T12:37:04.268Z,3.12
2019-05-16T12:42:01.189Z,3.15
2019-05-16T12:46:56.993Z,2.90
2019-05-16T12:51:51.000Z,2.80
2019-05-16T12:56:48.407Z,2.60
2019-05-16T13:01:42.565Z,2.40
2019-05-16T13:06:38.464Z,2.70
2019-05-16T13:11:32.442Z,3.47
2019-05-16T13:16:28.207Z,3.33
2019-05-16T13:21:23.133Z,3.15
2019-05-16T13:26:17.722Z,3.30
2019-05-16T13:31:11.917Z,3.25
2019-05-16T13:36:07.556Z,3.75
2019-05-16T13:41:02.009Z,3.58
2019-05-16T13:45:57.499Z,3.92
2019-05-16T13:51:10.535Z,3.70
2019-05-16T13:55:52.415Z,3.62
2019-05-16T14:00:48.008Z,3.70
2019-05-16T14:05:42.389Z,3.98
2019-05-16T14:10:37.599Z,3.62
2019-05-16T14:15:31.866Z,4.15
2019-05-16T14:20:25.950Z,4.05
2019-05-16T14:25:19.936Z,4.20
2019-05-16T14:30:17.745Z,3.58
2019-05-16T14:35:12.103Z,4.40
2019-05-16T14:40:06.722Z,4.40
2019-05-16T14:45:10.872Z,4.62
2019-05-16T14:49:56.731Z,4.37
2019-05-16T14:54:53.673Z,3.67
2019-05-16T14:59:48.074Z,3.42
2019-05-16T15:04:42.293Z,3.80
2019-05-16T15:09:37.989Z,3.50
2019-05-16T15:14:32.220Z,2.90
2019-05-16T15:19:26.328Z,3.02
2019-05-16T15:24:20.338Z,3.70
2019-05-16T15:29:16.526Z,3.50
2019-05-16T15:34:10.428Z,3.58
2019-05-16T15:39:08.356Z,3.30
2019-05-16T15:44:02.771Z,3.20
2019-05-16T15:49:00.188Z,3.52
2019-05-16T15:53:52.947Z,4.10
2019-05-16T15:58:46.993Z,5.03
2019-05-16T16:03:41.171Z,4.80
2019-05-16T16:08:37.345Z,4.70
2019-05-16T16:13:31.663Z,4.17
2019-05-16T16:18:27.028Z,4.15
2019-05-16T16:23:21.409Z,4.30
2019-05-16T16:28:17.499Z,3.98
2019-05-16T16:33:24.988Z,4.20
2019-05-16T16:38:08.428Z,4.22
2019-05-16T16:43:02.655Z,3.90
2019-05-16T16:47:57.288Z,3.90
2019-05-16T16:52:51.496Z,4.40
2019-05-16T16:57:48.484Z,4.10
2019-05-16T17:02:58.358Z,3.90
2019-05-16T17:07:38.434Z,4.30
2019-05-16T17:12:32.530Z,4.05
2019-05-16T17:17:27.905Z,3.83
2019-05-16T17:22:21.924Z,4.08
2019-05-16T17:27:16.095Z,4.00
2019-05-16T17:32:10.457Z,3.72
2019-05-16T17:37:09.992Z,3.27
2019-05-16T17:42:04.103Z,3.72
2019-05-16T17:46:58.188Z,4.08
2019-05-16T17:51:52.331Z,3.92
2019-05-16T17:56:46.522Z,4.10
2019-05-16T18:01:40.703Z,4.17
2019-05-16T18:06:36.947Z,3.90
2019-05-16T18:11:30.721Z,4.40
2019-05-16T18:16:25.177Z,4.15
2019-05-16T18:21:22.171Z,4.20
2019-05-16T18:26:17.333Z,5.30
2019-05-16T18:31:11.581Z,4.90
2019-05-16T18:36:07.708Z,6.70
2019-05-16T18:41:01.537Z,7.23
2019-05-16T18:45:56.717Z,6.10
2019-05-16T18:50:50.988Z,6.72
2019-05-16T18:55:46.210Z,7.50
2019-05-16T19:00:40.338Z,7.35
2019-05-16T19:05:34.571Z,6.90
2019-05-16T19:10:28.810Z,7.28
2019-05-16T19:15:22.835Z,7.95
2019-05-16T19:20:17.731Z,8.48
2019-05-16T19:25:12.235Z,9.23
2019-05-16T19:30:07.154Z,8.68
2019-05-16T19:35:01.227Z,8.13
2019-05-16T19:39:56.965Z,7.53
2019-05-16T19:44:50.992Z,6.60
2019-05-16T19:49:46.459Z,6.87
2019-05-16T19:54:40.686Z,6.05
2019-05-16T19:59:36.624Z,7.28
2019-05-16T20:04:30.624Z,6.95
2019-05-16T20:09:26.731Z,7.00
2019-05-16T20:14:23.025Z,6.83
2019-05-16T20:19:16.998Z,6.47
2019-05-16T20:24:13.744Z,6.20
2019-05-16T20:29:09.807Z,6.20
2019-05-16T20:34:03.881Z,6.23
2019-05-16T20:38:57.860Z,6.70
2019-05-16T20:43:51.854Z,7.10
2019-05-16T20:48:45.954Z,7.47
2019-05-16T20:53:40.058Z,6.58
2019-05-16T20:58:34.243Z,7.93
2019-05-16T21:03:28.359Z,8.00
2019-05-16T21:08:22.345Z,7.93
2019-05-16T21:13:18.215Z,8.18
2019-05-16T21:18:12.218Z,8.60
2019-05-16T21:23:07.365Z,9.00
2019-05-16T21:28:01.523Z,9.77
2019-05-16T21:32:58.411Z,10.13
2019-05-16T21:37:52.512Z,9.58
2019-05-16T21:42:46.527Z,10.40
2019-05-16T21:47:40.590Z,11.67
2019-05-16T21:52:36.421Z,10.70
2019-05-16T21:57:32.452Z,11.90
2019-05-16T22:02:26.717Z,12.17
2019-05-16T22:07:32.808Z,11.90
2019-05-16T22:12:18.315Z,11.90
2019-05-16T22:17:14.290Z,13.20
2019-05-16T22:22:08.604Z,12.80
2019-05-16T22:27:06.867Z,12.07
2019-05-16T22:32:01.018Z,12.73
2019-05-16T22:36:57.135Z,13.07
2019-05-16T22:41:50.982Z,12.27
2019-05-16T22:46:46.468Z,11.80
2019-05-16T22:51:40.633Z,13.70
2019-05-16T22:56:34.692Z,12.43
2019-05-16T23:01:28.656Z,11.97
2019-05-16T23:06:22.630Z,12.57
2019-05-16T23:11:16.714Z,11.33
2019-05-16T23:16:10.772Z,12.27
2019-05-16T23:21:06.403Z,11.87
2019-05-16T23:26:00.513Z,12.30
2019-05-16T23:30:54.462Z,12.00
2019-05-16T23:35:48.536Z,12.13
2019-05-16T23:40:42.542Z,12.77
2019-05-16T23:45:37.542Z,12.10
2019-05-16T23:50:31.761Z,13.00
2019-05-16T23:55:27.810Z,12.47
